Time;durP1;ratioP1;P1;durP2;ratioP2;P2;SDS_P1;SDS_P2;PMS_P1;PMS_P2;Temp;Humidity;BMP_temperature;BMP_pressure;BME280_temperature;BME280_humidity;BME280_pressure;Samples;Min_cycle;Max_cycle;Signal;HPM_P1;HPM_P2
2021/08/28 06:25:14;;;;;;;6.00;4.40;;;;;;;16.15;67.26;100005.53;4889207;28;96790;-90
2021/08/28 06:27:42;;;;;;;8.98;4.72;;;;;;;16.19;67.25;99998.22;4896031;28;96773;-88
2021/08/28 07:02:15;;;;;;;6.40;4.63;;;;;;;16.17;68.16;100024.78;4875839;28;97141;-89
2021/08/28 07:08:18;;;;;;;5.85;5.22;;;;;;;16.22;68.46;100021.88;4887751;28;96641;-89
2021/08/28 07:10:44;;;;;;;5.45;4.70;;;;;;;16.27;68.30;100025.09;4864411;28;99525;-92
2021/08/28 07:13:09;;;;;;;6.07;4.88;;;;;;;16.33;67.89;100013.28;4898758;28;96457;-93
2021/08/28 07:15:35;;;;;;;7.53;5.22;;;;;;;16.33;67.81;100021.22;4886104;28;96456;-93
2021/08/28 07:18:08;;;;;;;9.70;5.18;;;;;;;16.39;67.83;100020.81;4884341;28;96891;-93
2021/08/28 07:20:34;;;;;;;8.43;4.70;;;;;;;16.55;67.52;100013.63;4878461;28;99423;-94
2021/08/28 07:23:01;;;;;;;6.63;4.65;;;;;;;16.62;67.71;100028.16;4875718;28;98928;-89
2021/08/28 07:25:45;;;;;;;10.02;5.28;;;;;;;16.72;67.08;100023.97;4912062;23;96610;-91
2021/08/28 07:28:13;;;;;;;6.32;4.82;;;;;;;16.84;67.04;100027.69;4855723;28;97003;-93
2021/08/28 07:31:12;;;;;;;8.90;5.13;;;;;;;16.97;67.19;100017.97;4855366;28;97505;-92
2021/08/28 07:33:44;;;;;;;9.35;5.35;;;;;;;17.06;66.68;100021.81;4886582;28;100927;-94
2021/08/28 07:36:10;;;;;;;8.85;5.47;;;;;;;17.15;66.17;100025.66;4878674;28;96779;-94
2021/08/28 07:38:39;;;;;;;7.07;4.97;;;;;;;17.30;65.98;100029.09;4870136;28;97003;-94
2021/08/28 07:41:05;;;;;;;7.82;4.53;;;;;;;17.41;65.19;100027.44;4882619;28;99389;-92
2021/08/28 07:43:31;;;;;;;5.30;4.80;;;;;;;17.54;65.12;100030.13;4894815;28;100803;-93
2021/08/28 07:46:00;;;;;;;7.88;5.13;;;;;;;17.74;64.20;100034.06;4859264;28;98128;-92
2021/08/28 07:48:30;;;;;;;6.95;4.53;;;;;;;17.77;64.07;100023.25;4880655;28;96652;-94
2021/08/28 07:50:57;;;;;;;9.77;4.40;;;;;;;17.91;63.64;100035.59;4874756;28;101208;-90
2021/08/28 07:53:24;;;;;;;9.68;5.57;;;;;;;18.13;63.34;100031.47;4879975;28;101128;-93
2021/08/28 07:55:56;;;;;;;7.07;4.28;;;;;;;18.35;62.74;100034.28;4864753;28;96876;-95
2021/08/28 07:58:22;;;;;;;5.25;4.20;;;;;;;18.62;61.96;100034.16;4881975;28;97159;-96
2021/08/28 08:00:47;;;;;;;6.47;4.13;;;;;;;18.84;61.24;100030.78;4891891;28;97581;-95
2021/08/28 08:03:13;;;;;;;6.45;4.35;;;;;;;18.90;60.81;100035.66;4889860;28;100271;-96
2021/08/28 08:05:57;;;;;;;8.18;5.10;;;;;;;18.77;61.08;100033.06;4893165;28;97257;-91
2021/08/28 08:08:41;;;;;;;8.52;5.20;;;;;;;18.67;61.38;100029.31;4895934;28;97253;-95
2021/08/28 08:11:25;;;;;;;8.20;5.80;;;;;;;18.54;61.57;100031.19;4876868;28;97548;-95
2021/08/28 08:14:09;;;;;;;8.50;5.15;;;;;;;18.53;61.48;100029.50;4888119;28;97095;-96
2021/08/28 08:17:10;;;;;;;10.67;5.23;;;;;;;18.50;61.48;100024.38;4871560;28;97464;-93
2021/08/28 08:19:54;;;;;;;7.57;4.72;;;;;;;18.54;61.14;100025.88;4893264;28;96828;-95
2021/08/28 08:22:38;;;;;;;6.65;5.40;;;;;;;18.64;60.78;100032.19;4877165;28;97327;-94
2021/08/28 08:25:30;;;;;;;10.75;5.63;;;;;;;18.78;60.81;100032.09;4871780;28;99295;-91
2021/08/28 08:27:56;;;;;;;7.03;5.38;;;;;;;18.90;60.15;100026.84;4897600;28;96741;-95
2021/08/28 08:30:31;;;;;;;11.18;5.68;;;;;;;19.20;58.79;100021.94;4882038;28;97360;-93
2021/08/28 08:33:09;;;;;;;6.15;5.45;;;;;;;19.57;57.46;100026.28;4887115;28;100792;-96
2021/08/28 08:35:35;;;;;;;11.18;5.15;;;;;;;19.71;56.93;100011.94;4861804;28;102029;-90
2021/08/28 08:38:02;;;;;;;5.63;5.13;;;;;;;20.07;55.70;100021.53;4867280;28;97042;-88
2021/08/28 08:40:30;;;;;;;11.00;4.60;;;;;;;20.39;54.99;100015.47;4877261;28;97353;-91
2021/08/28 08:42:59;;;;;;;6.60;4.20;;;;;;;20.46;54.46;100017.56;4870226;28;98740;-93
2021/08/28 08:45:25;;;;;;;7.47;3.88;;;;;;;20.47;54.67;100021.06;4890312;28;101630;-94
2021/08/28 08:47:52;;;;;;;5.40;4.20;;;;;;;20.46;54.64;100022.88;4877031;28;97852;-96
2021/08/28 08:50:19;;;;;;;9.82;4.57;;;;;;;20.58;54.51;100013.94;4879641;28;97538;-96
2021/08/28 08:52:52;;;;;;;4.57;4.13;;;;;;;20.66;53.78;100013.31;4856526;28;101213;-94
2021/08/28 08:55:44;;;;;;;4.97;3.95;;;;;;;20.91;53.32;100017.47;4898682;28;97766;-95
2021/08/28 08:58:10;;;;;;;8.70;4.25;;;;;;;20.97;53.53;100014.34;4875640;28;97261;-94
2021/08/28 09:00:36;;;;;;;4.55;3.97;;;;;;;21.03;53.71;100021.84;4893236;28;98022;-96
2021/08/28 09:03:20;;;;;;;6.40;3.55;;;;;;;21.09;53.99;100025.81;4892364;28;97250;-94
2021/08/28 09:05:50;;;;;;;6.60;4.43;;;;;;;21.10;53.61;100013.31;4884854;28;102764;-95
2021/08/28 09:08:15;;;;;;;5.30;3.60;;;;;;;21.06;53.04;100020.75;4878758;28;97275;-95
2021/08/28 09:10:42;;;;;;;7.82;4.35;;;;;;;21.28;53.38;100024.28;4899815;28;97277;-95
2021/08/28 09:13:12;;;;;;;8.38;4.32;;;;;;;21.59;52.82;100022.59;4891478;28;100628;-93
2021/08/28 09:15:46;;;;;;;6.20;4.03;;;;;;;21.98;51.88;100020.16;4895508;28;101854;-94
2021/08/28 09:18:12;;;;;;;11.80;3.97;;;;;;;22.10;51.69;100016.41;4888468;28;97414;-94
2021/08/28 09:20:38;;;;;;;10.25;3.92;;;;;;;22.09;51.55;100020.91;4884217;28;96930;-92
2021/08/28 09:23:06;;;;;;;5.75;4.30;;;;;;;21.76;50.87;100013.13;4872119;28;100991;-91
2021/08/28 09:25:32;;;;;;;4.70;3.70;;;;;;;21.63;51.82;100019.50;4884619;28;100992;-96
2021/08/28 09:27:58;;;;;;;5.72;3.53;;;;;;;21.85;51.55;100015.88;4886125;28;96906;-92
2021/08/28 09:30:30;;;;;;;7.38;3.60;;;;;;;22.11;51.16;100021.63;4882738;28;96751;-92
2021/08/28 09:33:03;;;;;;;5.82;4.43;;;;;;;22.40;50.70;100020.94;4898808;28;98192;-94
2021/08/28 09:35:39;;;;;;;3.97;3.40;;;;;;;22.63;49.58;100020.72;4901642;28;98972;-96
2021/08/28 09:38:08;;;;;;;4.15;3.40;;;;;;;22.80;48.59;100012.84;4866170;28;97230;-94
2021/08/28 09:40:36;;;;;;;6.82;3.75;;;;;;;22.83;47.32;100009.94;4900811;28;97270;-94
2021/08/28 09:43:13;;;;;;;3.42;3.13;;;;;;;22.86;47.32;100019.47;4880970;28;99650;-91
2021/08/28 09:45:38;;;;;;;6.70;3.58;;;;;;;23.29;47.54;100012.94;4877779;28;100976;-93
2021/08/28 09:48:09;;;;;;;3.78;2.80;;;;;;;23.06;46.31;100015.03;4875817;28;96943;-90
2021/08/28 09:50:43;;;;;;;4.68;2.90;;;;;;;22.82;46.46;100020.75;4872231;28;97405;-93
2021/08/28 09:53:11;;;;;;;6.63;3.60;;;;;;;22.54;47.21;100023.25;4895000;28;98075;-92
2021/08/28 09:55:39;;;;;;;3.33;3.03;;;;;;;22.29;47.44;100024.53;4883777;28;101728;-94
2021/08/28 09:58:09;;;;;;;5.90;2.58;;;;;;;22.20;47.01;100021.84;4911324;28;97077;-89
2021/08/28 10:00:44;;;;;;;3.38;2.80;;;;;;;22.05;48.66;100022.16;4872958;28;97655;-95
2021/08/28 10:03:11;;;;;;;10.77;3.40;;;;;;;21.99;49.58;100025.38;4908486;28;101624;-94
2021/08/28 10:05:38;;;;;;;2.72;2.53;;;;;;;21.91;49.74;100018.00;4872201;28;99824;-94
2021/08/28 10:08:06;;;;;;;3.50;2.67;;;;;;;21.98;50.65;100017.47;4870446;28;96881;-91
2021/08/28 10:10:34;;;;;;;7.53;3.28;;;;;;;21.88;50.47;100014.75;4866630;28;96720;-95
2021/08/28 10:13:01;;;;;;;5.18;3.05;;;;;;;21.75;50.42;100027.47;4880628;28;99208;-95
2021/08/28 10:15:28;;;;;;;7.03;2.90;;;;;;;21.61;51.27;100020.63;4886124;28;101770;-95
2021/08/28 10:17:56;;;;;;;7.07;3.15;;;;;;;21.47;50.71;100019.13;4874781;28;96999;-95
2021/08/28 10:20:24;;;;;;;4.82;2.90;;;;;;;21.42;51.12;100013.31;4892690;28;97145;-94
2021/08/28 10:22:52;;;;;;;2.95;2.65;;;;;;;21.37;49.61;100035.06;4889876;28;98417;-94
2021/08/28 10:25:21;;;;;;;4.20;3.13;;;;;;;21.40;49.12;100026.78;4870844;28;102098;-95
2021/08/28 10:27:47;;;;;;;2.92;2.63;;;;;;;21.20;49.76;100020.41;4886243;28;96811;-95
2021/08/28 10:30:13;;;;;;;3.72;2.42;;;;;;;21.16;51.01;100018.97;4866631;28;97256;-96
2021/08/28 10:32:40;;;;;;;5.00;3.08;;;;;;;20.97;50.77;100021.47;4897138;28;98774;-95
2021/08/28 10:35:06;;;;;;;4.40;2.70;;;;;;;21.00;50.94;100027.41;4888208;28;99740;-90
2021/08/28 10:37:33;;;;;;;7.68;3.05;;;;;;;21.07;50.84;100026.91;4859559;28;97064;-96
2021/08/28 10:40:00;;;;;;;4.25;2.53;;;;;;;21.06;50.91;100023.41;4883236;28;97117;-96
2021/08/28 10:42:30;;;;;;;5.47;2.78;;;;;;;21.01;51.16;100017.59;4901214;28;97595;-96
2021/08/28 10:45:00;;;;;;;6.30;2.45;;;;;;;20.95;51.30;100023.44;4871402;28;99962;-95
2021/08/28 10:47:33;;;;;;;5.45;2.92;;;;;;;20.99;51.48;100024.88;4879183;28;96820;-87
2021/08/28 10:50:11;;;;;;;4.72;2.42;;;;;;;20.93;50.60;100030.72;4896635;28;97111;-87
2021/08/28 10:52:39;;;;;;;4.30;2.90;;;;;;;20.80;51.14;100029.06;4877513;28;101180;-86
2021/08/28 10:55:10;;;;;;;4.35;2.28;;;;;;;20.57;49.78;100022.06;4871966;28;100846;-88
2021/08/28 10:57:36;;;;;;;3.17;2.30;;;;;;;20.51;49.54;100026.03;4895859;28;96738;-84
2021/08/28 11:00:14;;;;;;;2.55;2.10;;;;;;;20.46;49.73;100022.03;4860446;28;97152;-87
2021/08/28 11:02:50;;;;;;;2.50;2.30;;;;;;;20.31;50.53;100021.44;4863415;28;100100;-87
2021/08/28 11:05:20;;;;;;;3.25;2.30;;;;;;;20.32;49.98;100015.97;4892721;28;101046;-87
2021/08/28 11:07:46;;;;;;;2.38;2.13;;;;;;;20.26;50.09;100024.47;4888131;28;97104;-86
2021/08/28 11:10:14;;;;;;;2.13;1.90;;;;;;;20.39;50.49;100020.81;4868532;28;97066;-84
2021/08/28 11:13:02;;;;;;;3.97;1.98;;;;;;;20.34;49.96;100018.53;4897356;28;101052;-83
2021/08/28 11:15:28;;;;;;;4.80;2.13;;;;;;;20.33;50.11;100023.03;4882435;28;98015;-83
2021/08/28 11:18:03;;;;;;;4.65;2.40;;;;;;;20.38;49.74;100019.97;4868911;28;96595;-85
2021/08/28 11:20:39;;;;;;;1.90;1.70;;;;;;;20.55;50.15;100016.00;4886421;28;96582;-85
2021/08/28 11:23:17;;;;;;;2.65;1.83;;;;;;;20.73;50.89;100019.84;4871002;28;97629;-84
2021/08/28 11:25:44;;;;;;;2.35;2.08;;;;;;;20.77;49.79;100013.28;4900772;28;101170;-83
2021/08/28 11:28:11;;;;;;;4.13;2.50;;;;;;;20.86;49.56;100017.03;4900972;28;96568;-84
2021/08/28 11:30:45;;;;;;;3.47;2.03;;;;;;;20.87;48.58;100020.53;4869791;28;96980;-84
2021/08/28 11:33:20;;;;;;;2.72;2.10;;;;;;;20.93;49.20;100018.22;4884906;28;97615;-84
2021/08/28 11:35:51;;;;;;;2.33;2.00;;;;;;;20.89;48.84;100014.13;4884934;28;97879;-84
2021/08/28 11:38:26;;;;;;;;;;;;;;;20.86;48.72;100025.03;4870064;28;96813;-84
2021/08/28 11:41:02;;;;;;;2.20;2.00;;;;;;;20.97;48.40;100024.13;4870541;28;96812;-84
2021/08/28 11:43:36;;;;;;;2.13;1.60;;;;;;;21.00;48.30;100018.53;4885792;28;98250;-84
2021/08/28 11:46:07;;;;;;;3.08;2.00;;;;;;;21.07;48.71;100027.75;4884956;28;100706;-85
2021/08/28 11:48:34;;;;;;;2.10;1.90;;;;;;;21.08;48.96;100024.09;4886197;28;96587;-85
2021/08/28 11:51:04;;;;;;;3.63;2.55;;;;;;;21.18;49.34;100026.88;4885314;28;97145;-85
2021/08/28 11:53:29;;;;;;;2.53;2.22;;;;;;;21.29;49.66;100029.47;4884779;28;97646;-84
2021/08/28 11:56:11;;;;;;;5.10;2.33;;;;;;;21.22;47.74;100029.16;4871844;28;97391;-85
2021/08/28 11:58:50;;;;;;;2.55;2.00;;;;;;;21.11;47.26;100015.84;4854901;28;96792;-85
2021/08/28 12:01:31;;;;;;;5.00;2.50;;;;;;;21.14;47.36;100033.44;4900502;28;96965;-85
2021/08/28 12:03:58;;;;;;;3.00;2.13;;;;;;;20.99;47.20;100033.72;4884656;28;97209;-84
2021/08/28 12:06:25;;;;;;;2.20;2.00;;;;;;;20.91;47.91;100029.97;4884180;28;101905;-84
2021/08/28 12:08:51;;;;;;;3.13;2.00;;;;;;;21.04;47.73;100028.00;4853595;28;96648;-86
2021/08/28 12:11:17;;;;;;;2.47;2.10;;;;;;;20.98;48.40;100029.34;4853153;28;97072;-84
2021/08/28 12:13:55;;;;;;;1.88;1.75;;;;;;;20.93;48.37;100036.03;4868582;28;98166;-84
2021/08/28 12:16:25;;;;;;;5.60;2.83;;;;;;;20.97;47.85;100026.81;4868514;28;101780;-82
2021/08/28 12:18:58;;;;;;;3.35;2.40;;;;;;;20.90;47.63;100029.13;4902704;28;96542;-83
2021/08/28 12:21:24;;;;;;;2.28;2.00;;;;;;;20.85;47.90;100028.66;4884936;28;96934;-84
2021/08/28 12:23:49;;;;;;;1.95;1.85;;;;;;;20.92;48.12;100029.88;4864885;28;98090;-82
2021/08/28 12:26:16;;;;;;;3.80;2.17;;;;;;;20.93;48.43;100017.38;4897415;28;101285;-86
2021/08/28 12:28:41;;;;;;;5.00;2.47;;;;;;;21.02;48.03;100024.63;4881865;28;96623;-84
2021/08/28 12:31:07;;;;;;;2.35;2.15;;;;;;;20.96;48.49;100030.47;4883904;28;97026;-84
2021/08/28 12:33:32;;;;;;;6.82;2.60;;;;;;;20.95;48.73;100012.75;4868650;28;101814;-84
2021/08/28 12:35:58;;;;;;;3.35;2.13;;;;;;;21.11;49.16;100023.84;4868552;28;101252;-83
2021/08/28 12:38:30;;;;;;;6.10;2.05;;;;;;;21.11;48.37;100021.19;4884632;28;96561;-84
2021/08/28 12:40:55;;;;;;;2.28;2.00;;;;;;;21.16;48.17;100016.31;4869206;28;96792;-84
2021/08/28 12:43:22;;;;;;;2.28;2.08;;;;;;;21.21;47.95;100015.94;4853060;28;101560;-84
2021/08/28 12:45:48;;;;;;;2.13;1.92;;;;;;;21.21;48.73;100024.78;4869174;28;101892;-84
2021/08/28 12:48:17;;;;;;;2.00;1.90;;;;;;;21.19;48.72;100009.88;4854019;28;96725;-84
2021/08/28 12:50:42;;;;;;;3.63;1.92;;;;;;;21.14;48.54;100012.06;4886018;28;96794;-84
2021/08/28 12:53:09;;;;;;;4.10;2.10;;;;;;;21.08;48.39;100010.75;4853789;28;101066;-85
2021/08/28 12:55:38;;;;;;;2.10;1.90;;;;;;;21.08;48.32;100015.25;4869696;28;100735;-83
2021/08/28 12:58:07;;;;;;;2.10;1.92;;;;;;;21.09;48.45;100006.25;4870792;28;96648;-84
2021/08/28 13:00:45;;;;;;;2.65;1.80;;;;;;;20.93;48.58;100001.38;4888232;28;96816;-84
2021/08/28 13:03:30;;;;;;;2.58;2.17;;;;;;;20.94;47.21;100017.25;4857342;28;101704;-85
2021/08/28 13:05:59;;;;;;;2.30;2.10;;;;;;;20.88;47.70;100016.88;4893392;28;97964;-83
2021/08/28 13:08:35;;;;;;;5.07;2.38;;;;;;;20.67;48.06;100003.50;4890398;28;96621;-82
2021/08/28 13:11:21;;;;;;;2.95;2.75;;;;;;;20.87;46.78;100013.38;4888407;28;96981;-85
2021/08/28 13:14:05;;;;;;;3.30;2.60;;;;;;;20.87;46.57;100007.22;4870019;28;98261;-85
2021/08/28 13:16:30;;;;;;;2.95;2.50;;;;;;;20.83;46.83;100011.06;4870638;28;100298;-86
2021/08/28 13:19:17;;;;;;;2.85;2.15;;;;;;;20.68;47.37;100003.38;4871642;28;96692;-86
2021/08/28 13:21:46;;;;;;;2.50;2.22;;;;;;;20.73;48.00;100009.16;4855349;28;96833;-85
2021/08/28 13:24:13;;;;;;;2.50;2.30;;;;;;;20.76;48.22;100000.91;4868612;28;98308;-86
2021/08/28 13:26:59;;;;;;;2.38;2.17;;;;;;;20.84;48.32;100002.97;4868154;28;101239;-86
2021/08/28 13:29:27;;;;;;;4.22;2.42;;;;;;;20.98;48.92;100009.84;4868191;28;96632;-86
2021/08/28 13:32:08;;;;;;;3.20;2.00;;;;;;;21.02;49.23;100006.78;4885437;28;97020;-86
2021/08/28 13:34:39;;;;;;;2.70;2.30;;;;;;;21.07;49.26;100002.91;4885465;28;98331;-85
2021/08/28 13:37:06;;;;;;;6.30;2.50;;;;;;;21.11;49.54;100007.00;4883773;28;99794;-85
2021/08/28 13:39:33;;;;;;;2.70;2.08;;;;;;;21.09;48.27;99993.81;4868650;28;96601;-86
2021/08/28 13:41:59;;;;;;;3.10;2.03;;;;;;;21.03;47.72;99995.16;4868485;28;96874;-86
2021/08/28 13:44:24;;;;;;;2.38;2.15;;;;;;;21.06;47.60;100004.72;4883928;28;98106;-86
2021/08/28 13:46:50;;;;;;;2.75;2.05;;;;;;;21.03;47.37;100002.28;4884484;28;97938;-86
2021/08/28 13:49:15;;;;;;;3.33;2.25;;;;;;;21.08;47.42;99997.41;4876876;28;96641;-84
2021/08/28 13:51:41;;;;;;;2.67;2.20;;;;;;;21.11;47.79;99996.31;4854775;28;96651;-83
2021/08/28 13:54:07;;;;;;;2.45;2.20;;;;;;;21.13;48.20;99989.03;4868760;28;100098;-84
2021/08/28 13:56:35;;;;;;;3.35;2.30;;;;;;;21.17;48.91;100001.16;4887801;28;99597;-83
2021/08/28 13:59:02;;;;;;;2.33;2.00;;;;;;;21.02;46.93;99993.44;4886816;28;96696;-84
2021/08/28 14:01:28;;;;;;;2.30;2.10;;;;;;;21.01;47.30;99993.59;4871805;28;96746;-82
2021/08/28 14:03:54;;;;;;;2.30;1.95;;;;;;;20.95;47.52;99994.94;4867652;28;100465;-84
2021/08/28 14:06:20;;;;;;;2.40;2.25;;;;;;;20.91;47.46;99981.97;4869389;28;99976;-84
2021/08/28 14:08:45;;;;;;;4.22;2.08;;;;;;;20.99;47.25;99993.69;4885518;28;96611;-85
2021/08/28 14:11:11;;;;;;;2.75;1.92;;;;;;;21.01;47.57;99993.59;4884290;28;96893;-83
2021/08/28 14:13:36;;;;;;;4.88;2.00;;;;;;;21.02;47.46;99995.25;4867649;28;101501;-84
2021/08/28 14:16:02;;;;;;;2.95;2.10;;;;;;;21.00;47.76;99997.19;4867123;28;101327;-84
2021/08/28 14:18:28;;;;;;;2.03;1.90;;;;;;;21.07;47.61;100002.91;4881813;28;96501;-84
2021/08/28 14:20:54;;;;;;;2.40;2.20;;;;;;;20.99;47.71;99996.34;4866222;28;96571;-85
2021/08/28 14:23:20;;;;;;;2.38;2.17;;;;;;;20.92;47.45;99991.69;4866561;28;98074;-85
2021/08/28 14:25:46;;;;;;;2.97;2.28;;;;;;;20.92;47.11;99991.69;4880486;28;101587;-85
2021/08/28 14:28:12;;;;;;;2.20;1.98;;;;;;;20.88;46.55;99991.06;4864137;28;96707;-85
2021/08/28 14:30:41;;;;;;;2.35;2.05;;;;;;;20.92;45.70;99991.69;4881508;28;96837;-85
2021/08/28 14:33:06;;;;;;;2.28;2.08;;;;;;;21.05;45.77;99987.00;4849227;28;101250;-86
2021/08/28 14:35:32;;;;;;;2.97;1.85;;;;;;;20.94;46.82;99987.03;4866082;28;101430;-85
2021/08/28 14:37:57;;;;;;;2.47;2.10;;;;;;;20.85;47.84;99985.13;4864514;28;96605;-84
2021/08/28 14:40:23;;;;;;;2.58;2.13;;;;;;;20.93;47.97;99996.03;4864126;28;96858;-84
2021/08/28 14:42:48;;;;;;;2.50;2.30;;;;;;;20.93;48.45;99991.53;4879480;28;101562;-84
2021/08/28 14:45:14;;;;;;;2.30;2.10;;;;;;;20.92;48.55;99995.19;4864333;28;98006;-84
2021/08/28 14:47:39;;;;;;;2.15;1.95;;;;;;;20.98;47.90;99999.16;4863785;28;96794;-84
2021/08/28 14:50:06;;;;;;;2.88;1.83;;;;;;;20.96;48.37;99996.63;4848363;28;96937;-84
2021/08/28 14:52:32;;;;;;;4.32;2.15;;;;;;;20.98;48.87;100001.84;4847399;28;101155;-84
2021/08/28 14:54:57;;;;;;;2.72;2.13;;;;;;;20.98;49.33;100004.50;4879064;28;98095;-83
2021/08/28 14:57:23;;;;;;;2.40;2.20;;;;;;;20.89;48.94;99994.59;4864298;28;96572;-84
2021/08/28 14:59:48;;;;;;;3.03;2.10;;;;;;;20.89;49.25;100000.78;4863621;28;96925;-84
2021/08/28 15:02:14;;;;;;;2.47;2.28;;;;;;;20.89;48.68;99998.09;4863393;28;97866;-84
2021/08/28 15:04:39;;;;;;;4.40;2.67;;;;;;;20.92;49.83;100002.34;4879813;28;97684;-84
2021/08/28 15:07:05;;;;;;;10.63;2.63;;;;;;;20.88;51.24;99998.22;4848084;28;96849;-85
2021/08/28 15:09:30;;;;;;;5.88;2.42;;;;;;;20.79;52.57;99994.47;4865228;28;96965;-84
2021/08/28 15:11:56;;;;;;;9.80;3.13;;;;;;;20.76;53.05;99992.91;4863523;28;101251;-84
2021/08/28 15:14:21;;;;;;;2.97;2.65;;;;;;;20.72;53.31;99999.47;4863221;28;97251;-82
2021/08/28 15:16:47;;;;;;;4.38;2.55;;;;;;;20.69;53.68;100001.56;4862978;28;96560;-84
2021/08/28 15:19:14;;;;;;;4.50;2.80;;;;;;;20.58;54.21;99994.41;4879043;28;96871;-83
2021/08/28 15:21:40;;;;;;;3.70;2.40;;;;;;;20.61;53.83;99996.84;4863070;28;101316;-85
2021/08/28 15:24:05;;;;;;;3.22;2.72;;;;;;;20.52;54.23;99998.44;4880298;28;97974;-85
2021/08/28 15:26:31;;;;;;;5.53;2.78;;;;;;;20.55;54.13;99992.84;4880885;28;96646;-84
2021/08/28 15:28:56;;;;;;;6.53;2.67;;;;;;;20.52;54.50;100003.75;4865581;28;96863;-85
2021/08/28 15:31:22;;;;;;;6.82;2.63;;;;;;;20.44;54.41;100008.81;4865018;28;103199;-85
2021/08/28 15:33:48;;;;;;;3.72;2.63;;;;;;;20.47;54.48;100005.06;4865140;28;97604;-85
2021/08/28 15:36:13;;;;;;;3.97;2.60;;;;;;;20.40;54.75;99995.88;4864359;28;96601;-85
2021/08/28 15:38:39;;;;;;;3.53;2.40;;;;;;;20.44;54.86;100011.47;4864204;28;97064;-85
2021/08/28 15:41:07;;;;;;;3.22;2.47;;;;;;;20.37;55.29;100007.63;4879745;28;98136;-85
2021/08/28 15:43:36;;;;;;;3.15;2.40;;;;;;;20.34;55.46;100016.72;4848351;28;101187;-85
2021/08/28 15:46:03;;;;;;;4.82;2.60;;;;;;;20.38;55.52;100011.97;4880327;28;96705;-83
2021/08/28 15:48:28;;;;;;;4.47;2.90;;;;;;;20.33;55.92;100011.50;4879974;28;96798;-85
2021/08/28 15:50:54;;;;;;;4.75;2.50;;;;;;;20.34;55.50;100008.72;4847928;28;101240;-85
2021/08/28 15:53:20;;;;;;;4.45;2.60;;;;;;;20.27;55.23;99990.66;4847478;28;101016;-85
2021/08/28 15:55:51;;;;;;;2.67;2.47;;;;;;;20.26;55.12;100002.31;4863330;28;96741;-84
2021/08/28 15:58:17;;;;;;;2.58;2.30;;;;;;;20.26;55.11;100008.47;4863667;28;96739;-84
2021/08/28 16:00:43;;;;;;;3.25;2.30;;;;;;;20.23;55.49;100016.72;4863085;28;98091;-83
2021/08/28 16:03:09;;;;;;;3.80;2.33;;;;;;;20.21;55.62;100009.81;4847123;28;101574;-83
2021/08/28 16:05:34;;;;;;;2.92;2.40;;;;;;;20.17;55.86;100016.34;4846556;28;96643;-84
2021/08/28 16:08:00;;;;;;;2.83;2.33;;;;;;;20.15;55.66;100011.13;4865609;28;97012;-84
2021/08/28 16:10:26;;;;;;;4.30;2.60;;;;;;;20.12;55.76;100014.88;4865944;28;98092;-84
2021/08/28 16:12:52;;;;;;;3.83;2.35;;;;;;;20.04;55.46;100012.00;4850548;28;99989;-84
2021/08/28 16:15:18;;;;;;;2.50;2.10;;;;;;;20.01;55.66;100014.03;4883116;28;96525;-86
2021/08/28 16:17:43;;;;;;;3.90;2.35;;;;;;;19.97;55.79;100009.94;4882386;28;97145;-84
2021/08/28 16:20:09;;;;;;;2.42;2.22;;;;;;;19.94;56.07;100023.47;4850767;28;101105;-87
2021/08/28 16:22:35;;;;;;;3.92;2.65;;;;;;;19.89;56.13;100018.50;4870346;28;100970;-86
2021/08/28 16:25:01;;;;;;;3.35;2.22;;;;;;;19.75;55.92;100014.25;4883460;28;96843;-84
2021/08/28 16:27:27;;;;;;;3.50;2.40;;;;;;;19.66;55.85;100012.28;4883857;28;96634;-85
2021/08/28 16:29:53;;;;;;;2.13;1.95;;;;;;;19.67;55.79;100022.00;4881342;28;97498;-83
2021/08/28 16:32:18;;;;;;;3.97;2.80;;;;;;;19.60;56.13;100026.03;4865880;28;97539;-84
2021/08/28 16:34:44;;;;;;;2.83;2.35;;;;;;;19.59;56.42;100027.00;4883368;28;96589;-85
2021/08/28 16:37:09;;;;;;;4.00;2.65;;;;;;;19.44;56.63;100018.38;4884873;28;96679;-86
2021/08/28 16:39:35;;;;;;;3.42;2.70;;;;;;;19.46;56.47;100024.44;4884311;28;98118;-84
2021/08/28 16:42:01;;;;;;;3.05;2.75;;;;;;;19.35;56.31;100029.72;4852120;28;100372;-85
2021/08/28 16:44:28;;;;;;;3.63;2.33;;;;;;;19.35;56.45;100025.25;4868103;28;96600;-86
2021/08/28 16:46:54;;;;;;;2.53;2.13;;;;;;;19.32;56.43;100021.97;4868490;28;96817;-85
2021/08/28 16:49:19;;;;;;;3.65;2.80;;;;;;;19.38;56.62;100021.50;4903503;28;97639;-83
2021/08/28 16:51:45;;;;;;;4.32;2.60;;;;;;;19.32;56.82;100020.16;4886585;28;97068;-84
2021/08/28 16:54:10;;;;;;;2.97;2.53;;;;;;;19.25;56.99;100018.06;4870024;28;96991;-84
2021/08/28 16:56:36;;;;;;;7.90;2.70;;;;;;;19.23;57.18;100023.50;4868310;28;96888;-84
2021/08/28 16:59:02;;;;;;;2.75;2.55;;;;;;;19.28;57.16;100023.16;4850732;28;99977;-84
2021/08/28 17:01:27;;;;;;;2.60;2.40;;;;;;;19.22;57.38;100033.28;4865368;28;99739;-84
2021/08/28 17:03:53;;;;;;;3.67;2.22;;;;;;;19.20;57.48;100023.75;4881361;28;96637;-85
2021/08/28 17:06:18;;;;;;;4.88;2.45;;;;;;;19.21;57.26;100033.41;4881460;28;96893;-83
2021/08/28 17:08:44;;;;;;;5.07;2.20;;;;;;;19.22;57.45;100037.75;4881422;28;98085;-84
2021/08/28 17:11:10;;;;;;;2.97;2.58;;;;;;;19.17;57.86;100032.81;4865362;28;101431;-84
2021/08/28 17:13:35;;;;;;;2.85;2.40;;;;;;;19.12;57.79;100024.31;4881037;28;96558;-84
2021/08/28 17:16:01;;;;;;;5.20;2.67;;;;;;;19.17;57.94;100031.97;4881524;28;96602;-83
2021/08/28 17:18:26;;;;;;;2.30;2.10;;;;;;;19.21;58.03;100036.91;4864333;28;97522;-83
2021/08/28 17:20:55;;;;;;;2.60;2.40;;;;;;;19.12;58.23;100031.44;4849352;28;101640;-86
2021/08/28 17:23:23;;;;;;;4.57;2.55;;;;;;;19.08;58.67;100038.81;4865394;28;96618;-83
2021/08/28 17:25:52;;;;;;;3.30;2.40;;;;;;;19.09;58.62;100037.00;4850184;28;96743;-83
2021/08/28 17:28:18;;;;;;;3.50;2.90;;;;;;;19.05;58.93;100039.00;4869293;28;101604;-84
2021/08/28 17:30:43;;;;;;;4.10;2.67;;;;;;;19.05;58.89;100036.34;4884930;28;98551;-85
2021/08/28 17:33:09;;;;;;;7.47;3.22;;;;;;;18.96;59.18;100043.19;4885578;28;96749;-85
2021/08/28 17:35:35;;;;;;;3.50;3.20;;;;;;;18.96;59.34;100042.34;4869644;28;96877;-85
2021/08/28 17:38:00;;;;;;;10.60;7.93;;;;;;;18.95;59.23;100038.00;4883686;28;98187;-85
2021/08/28 17:40:26;;;;;;;29.48;21.45;;;;;;;18.85;59.43;100027.19;4865808;28;96597;-84
2021/08/28 17:42:51;;;;;;;30.75;22.73;;;;;;;18.87;59.34;100033.22;4883176;28;96591;-85
2021/08/28 17:45:17;;;;;;;17.48;12.80;;;;;;;18.84;59.42;100033.44;4848886;28;96830;-84
2021/08/28 17:47:42;;;;;;;12.25;8.90;;;;;;;18.88;59.36;100034.94;4863752;28;101643;-83
2021/08/28 17:50:08;;;;;;;5.57;4.85;;;;;;;18.87;59.38;100030.56;4897376;28;98405;-84
2021/08/28 17:52:34;;;;;;;8.27;5.10;;;;;;;18.86;59.55;100041.34;4880785;28;96626;-83
2021/08/28 17:54:59;;;;;;;7.28;5.20;;;;;;;18.69;60.29;100038.03;4865285;28;96903;-84
2021/08/28 17:57:25;;;;;;;4.80;4.28;;;;;;;18.62;60.51;100041.28;4861269;28;101616;-84
2021/08/28 17:59:50;;;;;;;5.47;3.63;;;;;;;18.54;60.32;100028.53;4861741;28;97889;-83
2021/08/28 18:02:16;;;;;;;6.18;3.47;;;;;;;18.59;60.41;100037.03;4849060;28;96615;-83
2021/08/28 18:04:41;;;;;;;7.07;3.30;;;;;;;18.73;60.42;100046.63;4864808;28;96995;-85
2021/08/28 18:07:07;;;;;;;7.38;3.40;;;;;;;18.61;60.29;100044.88;4863886;28;101353;-86
2021/08/28 18:09:32;;;;;;;4.07;3.58;;;;;;;18.61;60.54;100047.53;4864366;28;101259;-85
2021/08/28 18:11:58;;;;;;;3.83;3.45;;;;;;;18.63;60.46;100058.91;4865318;28;96577;-85
2021/08/28 18:14:23;;;;;;;4.05;3.10;;;;;;;18.56;60.45;100063.81;4880997;28;96943;-86
2021/08/28 18:16:50;;;;;;;3.88;2.95;;;;;;;18.48;60.84;100063.50;4864543;28;101172;-86
2021/08/28 18:19:16;;;;;;;3.63;3.33;;;;;;;18.45;60.95;100051.28;4864532;28;101453;-83
2021/08/28 18:21:42;;;;;;;8.00;3.65;;;;;;;18.38;60.92;100062.44;4848739;28;96621;-86
2021/08/28 18:24:07;;;;;;;4.43;3.83;;;;;;;18.40;60.60;100073.84;4849310;28;96931;-86
2021/08/28 18:26:33;;;;;;;5.22;3.78;;;;;;;18.42;60.70;100077.25;4880832;28;98076;-85
2021/08/28 18:28:59;;;;;;;4.07;3.67;;;;;;;18.44;61.04;100076.19;4864216;28;101566;-85
2021/08/28 18:31:24;;;;;;;4.07;3.67;;;;;;;18.37;60.96;100066.91;4864395;28;96856;-86